createdAt,value
2017-08-09T00:00:03.187Z,14.5
2017-08-09T00:15:02.931Z,14.5
2017-08-09T00:30:02.748Z,14.4
2017-08-09T00:45:03.400Z,14.4
2017-08-09T01:00:03.023Z,14.4
2017-08-09T01:15:02.693Z,14.4
2017-08-09T01:30:03.364Z,14.4
2017-08-09T01:45:03.016Z,14.4
2017-08-09T02:00:02.663Z,14.5
2017-08-09T02:15:03.290Z,14.5
2017-08-09T02:30:03.008Z,14.5
2017-08-09T02:45:02.619Z,14.5
2017-08-09T03:00:03.219Z,14.5
2017-08-09T03:15:02.817Z,14.6
2017-08-09T03:30:03.428Z,14.6
2017-08-09T03:45:03.046Z,14.6
2017-08-09T04:00:02.640Z,14.6
2017-08-09T04:15:03.253Z,14.6
2017-08-09T04:30:02.887Z,14.6
2017-08-09T04:45:03.520Z,14.6
2017-08-09T05:00:03.123Z,14.6
2017-08-09T05:15:02.773Z,14.7
2017-08-09T05:30:03.511Z,14.7
2017-08-09T05:45:03.247Z,14.7
2017-08-09T06:00:02.813Z,14.8
2017-08-09T06:15:03.469Z,14.8
2017-08-09T06:30:03.206Z,14.8
2017-08-09T06:45:02.844Z,14.8
2017-08-09T07:00:03.528Z,14.8
2017-08-09T07:15:03.171Z,14.8
2017-08-09T07:30:03.206Z,14.9
2017-08-09T07:45:02.880Z,14.9
2017-08-09T08:00:03.666Z,14.9
2017-08-09T08:15:03.339Z,15
2017-08-09T08:30:03.108Z,15.1
2017-08-09T08:45:03.215Z,15.1
2017-08-09T09:00:02.910Z,15.1
2017-08-09T09:15:03.722Z,15.2
2017-08-09T09:30:03.478Z,15.2
2017-08-09T09:45:03.124Z,15.2
2017-08-09T10:00:02.767Z,15.3
2017-08-09T10:15:03.383Z,15.4
2017-08-09T10:30:03.059Z,15.4
2017-08-09T10:45:02.621Z,15.4
2017-08-09T11:00:03.205Z,15.5
2017-08-09T11:15:02.904Z,15.6
2017-08-09T11:30:02.649Z,15.7
2017-08-09T11:45:03.268Z,15.7
2017-08-09T12:00:02.858Z,15.7
2017-08-09T12:15:03.617Z,15.7
2017-08-09T12:30:03.297Z,15.8
2017-08-09T12:45:02.940Z,15.8
2017-08-09T13:00:02.531Z,15.8
2017-08-09T13:15:03.149Z,15.8
2017-08-09T13:30:02.930Z,15.8
2017-08-09T13:45:02.503Z,15.8
2017-08-09T14:00:03.224Z,15.8
2017-08-09T14:15:03.121Z,15.8
2017-08-09T14:30:02.895Z,15.7
2017-08-09T14:45:03.604Z,15.6
2017-08-09T15:00:03.175Z,15.6
2017-08-09T15:15:02.829Z,15.6
2017-08-09T15:30:03.728Z,15.6
2017-08-09T15:45:03.371Z,15.5
2017-08-09T16:00:03.087Z,15.5
2017-08-09T16:15:02.712Z,15.4
2017-08-09T16:30:03.392Z,15.4
2017-08-09T16:45:02.976Z,15.4
2017-08-09T17:00:02.602Z,15.4
2017-08-09T17:15:03.268Z,15.4
2017-08-09T17:30:03.034Z,15.4
2017-08-09T17:45:02.671Z,15.4
2017-08-09T18:00:03.361Z,15.3
2017-08-09T18:15:03.049Z,15.3
2017-08-09T18:30:02.717Z,15.3
2017-08-09T18:45:03.315Z,15.3
2017-08-09T19:00:02.946Z,15.3
2017-08-09T19:15:02.611Z,15.3
2017-08-09T19:30:03.261Z,15.3
2017-08-09T19:45:02.990Z,15.3
2017-08-09T20:00:02.592Z,15.3
2017-08-09T20:15:03.219Z,15.3
2017-08-09T20:30:02.883Z,15.4
2017-08-09T20:45:03.433Z,15.4
2017-08-09T21:00:03.106Z,15.4
2017-08-09T21:15:02.815Z,15.4
2017-08-09T21:30:03.483Z,15.4
2017-08-09T21:45:03.049Z,15.4
2017-08-09T22:00:02.655Z,15.4
2017-08-09T22:15:03.305Z,15.4
2017-08-09T22:30:02.950Z,15.4
2017-08-09T22:45:02.589Z,15.4
2017-08-09T23:00:03.580Z,15.3
2017-08-09T23:15:03.345Z,15.3
2017-08-09T23:30:02.971Z,15.3
2017-08-09T23:45:02.611Z,15.3
